createdAt,value
2017-10-29T00:01:02.635Z,90.77
2017-10-29T00:03:30.305Z,90.52
2017-10-29T00:05:57.918Z,90.51
2017-10-29T00:08:25.926Z,90.76
2017-10-29T00:10:53.694Z,91.00
2017-10-29T00:13:21.720Z,91.11
2017-10-29T00:15:49.698Z,91.17
2017-10-29T00:18:17.246Z,91.21
2017-10-29T00:20:44.862Z,91.33
2017-10-29T00:23:12.424Z,91.42
2017-10-29T00:25:39.994Z,91.37
2017-10-29T00:28:07.614Z,91.71
2017-10-29T00:30:35.192Z,91.42
2017-10-29T00:33:02.842Z,91.20
2017-10-29T00:35:30.415Z,91.18
2017-10-29T00:37:57.999Z,90.96
2017-10-29T00:40:26.382Z,90.96
2017-10-29T00:42:54.270Z,91.08
2017-10-29T00:45:21.844Z,90.79
2017-10-29T00:47:49.414Z,91.02
2017-10-29T00:50:16.991Z,90.25
2017-10-29T00:52:44.554Z,90.87
2017-10-29T00:55:12.145Z,90.22
2017-10-29T00:57:40.061Z,90.12
2017-10-29T01:00:07.641Z,90.16
2017-10-29T01:02:35.233Z,89.52
2017-10-29T01:05:02.785Z,89.72
2017-10-29T01:07:30.435Z,89.04
2017-10-29T01:09:58.058Z,89.47
2017-10-29T01:12:27.278Z,89.89
2017-10-29T01:14:54.865Z,89.94
2017-10-29T01:17:22.428Z,89.77
2017-10-29T01:19:50.131Z,90.18
2017-10-29T01:22:18.138Z,89.64
2017-10-29T01:24:47.206Z,89.17
2017-10-29T01:27:14.762Z,89.76
2017-10-29T01:29:42.344Z,88.70
2017-10-29T01:32:09.932Z,89.08
2017-10-29T01:34:37.671Z,89.30
2017-10-29T01:37:05.255Z,88.90
2017-10-29T01:39:33.169Z,88.52
2017-10-29T01:42:00.826Z,88.92
2017-10-29T01:44:28.385Z,88.79
2017-10-29T01:46:55.973Z,88.71
2017-10-29T01:49:23.527Z,88.82
2017-10-29T01:51:51.108Z,88.64
2017-10-29T01:54:18.661Z,89.48
2017-10-29T01:56:46.258Z,89.38
2017-10-29T01:59:13.832Z,89.22
2017-10-29T02:01:41.720Z,88.88
2017-10-29T02:04:09.279Z,89.12
2017-10-29T02:06:37.499Z,89.31
2017-10-29T02:09:05.105Z,89.11
2017-10-29T02:11:32.664Z,89.02
2017-10-29T02:14:00.265Z,88.99
2017-10-29T02:16:27.934Z,88.68
2017-10-29T02:18:55.517Z,89.12
2017-10-29T02:21:23.069Z,88.37
2017-10-29T02:23:51.095Z,88.70
2017-10-29T02:26:19.137Z,88.68
2017-10-29T02:28:46.712Z,88.03
2017-10-29T02:31:14.375Z,86.85
2017-10-29T02:33:41.941Z,86.37
2017-10-29T02:36:09.663Z,85.99
2017-10-29T02:38:37.782Z,85.10
2017-10-29T02:41:05.563Z,85.35
2017-10-29T02:43:33.637Z,83.81
2017-10-29T02:46:01.465Z,83.75
2017-10-29T02:48:29.021Z,83.80
2017-10-29T02:50:56.575Z,83.60
2017-10-29T02:53:24.219Z,83.50
2017-10-29T02:55:53.168Z,83.71
2017-10-29T02:58:20.739Z,83.45
2017-10-29T03:00:48.658Z,83.15
2017-10-29T03:03:16.561Z,83.00
2017-10-29T03:05:45.485Z,82.82
2017-10-29T03:08:13.213Z,81.93
2017-10-29T03:10:40.813Z,81.80
2017-10-29T03:13:08.435Z,81.36
2017-10-29T03:15:36.399Z,80.41
2017-10-29T03:18:03.969Z,81.56
2017-10-29T03:20:31.947Z,80.22
2017-10-29T03:22:59.537Z,79.96
2017-10-29T03:25:27.443Z,80.24
2017-10-29T03:27:55.033Z,79.96
2017-10-29T03:30:22.600Z,79.78
2017-10-29T03:32:50.163Z,80.03
2017-10-29T03:35:18.109Z,80.00
2017-10-29T03:37:45.977Z,80.24
2017-10-29T03:40:13.576Z,79.21
2017-10-29T03:42:41.130Z,79.52
2017-10-29T03:45:09.121Z,79.60
2017-10-29T03:47:36.674Z,79.26
2017-10-29T03:50:04.252Z,79.38
2017-10-29T03:52:31.818Z,79.13
2017-10-29T03:54:59.407Z,78.62
2017-10-29T03:57:27.027Z,78.57
2017-10-29T03:59:54.927Z,78.29
2017-10-29T04:02:23.771Z,78.26
2017-10-29T04:04:51.329Z,78.23
2017-10-29T04:07:19.229Z,78.26
2017-10-29T04:09:46.782Z,77.66
2017-10-29T04:12:14.343Z,77.90
2017-10-29T04:14:42.234Z,77.62
2017-10-29T04:17:09.819Z,77.36
2017-10-29T04:19:37.373Z,77.18
2017-10-29T04:22:07.239Z,77.51
2017-10-29T04:24:34.822Z,77.66
2017-10-29T04:27:02.381Z,76.62
2017-10-29T04:29:30.376Z,76.76
2017-10-29T04:31:57.948Z,76.50
2017-10-29T04:34:25.547Z,76.28
2017-10-29T04:36:53.543Z,76.24
2017-10-29T04:39:21.189Z,76.03
2017-10-29T04:41:48.785Z,75.20
2017-10-29T04:44:16.787Z,75.45
2017-10-29T04:46:44.813Z,75.44
2017-10-29T04:49:12.405Z,74.51
2017-10-29T04:51:40.351Z,74.62
2017-10-29T04:54:08.017Z,74.56
2017-10-29T04:56:35.971Z,74.36
2017-10-29T04:59:03.518Z,73.90
2017-10-29T05:01:31.423Z,73.41
2017-10-29T05:03:59.359Z,73.59
2017-10-29T05:06:26.924Z,73.35
2017-10-29T05:08:54.523Z,73.10
2017-10-29T05:11:22.074Z,73.23
2017-10-29T05:13:51.766Z,73.50
2017-10-29T05:16:19.337Z,73.57
2017-10-29T05:18:48.405Z,74.17
2017-10-29T05:21:15.995Z,73.90
2017-10-29T05:23:44.179Z,73.62
2017-10-29T05:26:12.072Z,73.74
2017-10-29T05:28:41.473Z,73.50
2017-10-29T05:31:09.045Z,73.60
2017-10-29T05:33:36.600Z,74.12
2017-10-29T05:36:04.193Z,74.21
2017-10-29T05:38:31.758Z,74.47
2017-10-29T05:40:59.354Z,74.44
2017-10-29T05:43:26.907Z,74.08
2017-10-29T05:45:54.474Z,74.80
2017-10-29T05:48:22.076Z,74.81
2017-10-29T05:50:51.466Z,74.72
2017-10-29T05:53:19.167Z,75.08
2017-10-29T05:55:46.738Z,74.59
2017-10-29T05:58:15.116Z,74.33
2017-10-29T06:00:42.757Z,74.49
2017-10-29T06:03:10.657Z,75.11
2017-10-29T06:05:38.260Z,75.95
2017-10-29T06:08:05.914Z,76.70
2017-10-29T06:10:33.512Z,76.86
2017-10-29T06:13:01.084Z,77.26
2017-10-29T06:15:28.696Z,77.87
2017-10-29T06:17:56.282Z,78.16
2017-10-29T06:20:23.874Z,78.33
2017-10-29T06:22:51.414Z,78.86
2017-10-29T06:25:19.012Z,79.97
2017-10-29T06:27:46.568Z,80.86
2017-10-29T06:30:14.125Z,81.67
2017-10-29T06:32:41.727Z,81.88
2017-10-29T06:35:09.303Z,82.27
2017-10-29T06:37:36.918Z,83.61
2017-10-29T06:40:04.485Z,84.65
2017-10-29T06:42:32.798Z,85.21
2017-10-29T06:45:00.366Z,86.36
2017-10-29T06:47:27.920Z,87.28
2017-10-29T06:49:55.524Z,87.83
2017-10-29T06:52:23.208Z,88.18
2017-10-29T06:54:50.832Z,88.59
2017-10-29T06:57:18.746Z,88.86
2017-10-29T06:59:46.386Z,89.19
2017-10-29T07:02:13.974Z,89.60
2017-10-29T07:04:41.572Z,89.44
2017-10-29T07:07:09.500Z,89.54
2017-10-29T07:09:37.053Z,89.70
2017-10-29T07:12:04.674Z,89.66
2017-10-29T07:14:33.018Z,89.78
2017-10-29T07:17:01.196Z,89.82
2017-10-29T07:19:28.759Z,90.03
2017-10-29T07:21:56.682Z,89.89
2017-10-29T07:24:24.285Z,89.46
2017-10-29T07:26:52.034Z,89.34
2017-10-29T07:29:19.638Z,89.59
2017-10-29T07:31:47.700Z,89.46
2017-10-29T07:34:15.696Z,89.48
2017-10-29T07:36:43.288Z,89.42
2017-10-29T07:39:10.913Z,89.48
2017-10-29T07:41:38.884Z,89.02
2017-10-29T07:44:06.846Z,88.77
2017-10-29T07:46:34.845Z,89.12
2017-10-29T07:49:02.460Z,88.78
2017-10-29T07:51:30.436Z,88.49
2017-10-29T07:53:57.991Z,88.54
2017-10-29T07:56:26.024Z,88.04
2017-10-29T07:58:53.601Z,87.83
2017-10-29T08:01:21.201Z,87.79
2017-10-29T08:03:49.212Z,87.67
2017-10-29T08:06:16.812Z,87.37
2017-10-29T08:08:44.408Z,87.31
2017-10-29T08:11:12.542Z,87.18
2017-10-29T08:13:40.133Z,86.99
2017-10-29T08:16:07.720Z,86.92
2017-10-29T08:18:35.315Z,86.68
2017-10-29T08:21:02.874Z,86.47
2017-10-29T08:23:30.476Z,86.52
2017-10-29T08:25:58.070Z,86.69
2017-10-29T08:28:25.999Z,86.63
2017-10-29T08:30:53.664Z,86.66
2017-10-29T08:33:21.377Z,86.85
2017-10-29T08:35:49.465Z,87.25
2017-10-29T08:38:17.041Z,87.73
2017-10-29T08:40:44.663Z,87.52
2017-10-29T08:43:12.883Z,87.42
2017-10-29T08:45:40.501Z,87.44
2017-10-29T08:48:08.094Z,87.36
2017-10-29T08:50:35.678Z,87.64
2017-10-29T08:53:03.320Z,87.70
2017-10-29T08:55:30.923Z,88.00
2017-10-29T08:57:58.595Z,88.01
2017-10-29T09:00:26.640Z,88.11
2017-10-29T09:02:54.341Z,87.90
2017-10-29T09:05:21.950Z,88.38
2017-10-29T09:07:49.529Z,89.16
2017-10-29T09:10:17.139Z,89.50
2017-10-29T09:12:44.745Z,90.30
2017-10-29T09:15:12.377Z,90.74
2017-10-29T09:17:40.405Z,90.94
2017-10-29T09:20:08.017Z,90.98
2017-10-29T09:22:35.605Z,91.46
2017-10-29T09:25:05.784Z,91.51
2017-10-29T09:27:33.910Z,91.82
2017-10-29T09:30:01.479Z,91.76
2017-10-29T09:32:29.061Z,92.01
2017-10-29T09:34:56.652Z,92.00
2017-10-29T09:37:24.290Z,92.45
2017-10-29T09:39:51.876Z,91.92
2017-10-29T09:42:19.768Z,92.74
2017-10-29T09:44:47.378Z,93.05
2017-10-29T09:47:14.996Z,93.19
2017-10-29T09:49:43.004Z,93.47
2017-10-29T09:52:10.744Z,93.78
2017-10-29T09:54:38.333Z,94.29
2017-10-29T09:57:06.019Z,94.49
2017-10-29T09:59:33.608Z,94.37
2017-10-29T10:02:01.199Z,94.25
2017-10-29T10:04:28.775Z,94.19
2017-10-29T10:06:56.846Z,93.99
2017-10-29T10:09:24.447Z,94.75
2017-10-29T10:11:52.028Z,94.90
2017-10-29T10:14:20.195Z,95.23
2017-10-29T10:16:47.971Z,92.40
2017-10-29T10:19:16.489Z,93.45
2017-10-29T10:21:44.048Z,93.83
2017-10-29T10:24:11.649Z,94.74
2017-10-29T10:26:39.237Z,95.06
2017-10-29T10:29:08.852Z,95.40
2017-10-29T10:31:36.505Z,94.57
2017-10-29T10:34:04.098Z,92.62
2017-10-29T10:36:31.750Z,92.30
2017-10-29T10:38:59.388Z,91.20
2017-10-29T10:41:27.011Z,89.47
2017-10-29T10:43:54.799Z,90.21
2017-10-29T10:46:23.148Z,90.46
2017-10-29T10:48:52.140Z,90.42
2017-10-29T10:51:19.761Z,88.86
2017-10-29T10:53:47.396Z,89.88
2017-10-29T10:56:15.159Z,87.95
2017-10-29T10:58:43.094Z,87.81
2017-10-29T11:01:11.155Z,88.40
2017-10-29T11:03:38.728Z,88.02
2017-10-29T11:06:06.432Z,87.82
2017-10-29T11:08:34.017Z,85.48
2017-10-29T11:11:02.421Z,85.03
2017-10-29T11:13:30.163Z,83.92
2017-10-29T11:15:58.131Z,84.33
2017-10-29T11:18:25.745Z,81.80
2017-10-29T11:20:53.772Z,83.54
2017-10-29T11:23:21.352Z,83.94
2017-10-29T11:25:49.113Z,81.92
2017-10-29T11:28:17.044Z,84.03
2017-10-29T11:30:44.665Z,84.02
2017-10-29T11:33:12.330Z,85.08
2017-10-29T11:35:40.325Z,86.18
2017-10-29T11:38:08.086Z,84.58
2017-10-29T11:40:35.916Z,84.34
2017-10-29T11:43:03.909Z,82.44
2017-10-29T11:45:31.537Z,81.12
2017-10-29T11:47:59.146Z,81.66
2017-10-29T11:50:27.146Z,81.76
2017-10-29T11:52:56.522Z,82.25
2017-10-29T11:55:24.198Z,81.32
2017-10-29T11:57:52.365Z,80.93
2017-10-29T12:00:19.984Z,81.25
2017-10-29T12:02:47.641Z,80.83
2017-10-29T12:05:15.653Z,81.73
2017-10-29T12:07:43.335Z,81.63
2017-10-29T12:10:10.960Z,79.89
2017-10-29T12:12:38.627Z,78.94
2017-10-29T12:15:08.370Z,79.01
2017-10-29T12:17:35.962Z,76.09
2017-10-29T12:20:03.608Z,75.23
2017-10-29T12:22:31.252Z,75.66
2017-10-29T12:24:58.885Z,73.34
2017-10-29T12:27:26.837Z,73.69
2017-10-29T12:29:54.559Z,72.66
2017-10-29T12:32:22.186Z,71.95
2017-10-29T12:34:50.507Z,71.16
2017-10-29T12:37:18.470Z,72.81
2017-10-29T12:39:46.221Z,72.66
2017-10-29T12:42:13.837Z,72.23
2017-10-29T12:44:42.216Z,70.31
2017-10-29T12:47:10.207Z,68.65
2017-10-29T12:49:37.835Z,69.81
2017-10-29T12:52:05.623Z,68.51
2017-10-29T12:54:33.297Z,68.38
2017-10-29T12:57:00.985Z,69.32
2017-10-29T12:59:28.651Z,66.86
2017-10-29T13:01:56.582Z,59.98
2017-10-29T13:04:24.232Z,61.62
2017-10-29T13:06:51.870Z,62.46
2017-10-29T13:09:19.526Z,62.84
2017-10-29T13:11:47.195Z,61.50
2017-10-29T13:14:17.691Z,61.08
2017-10-29T13:16:45.866Z,59.08
2017-10-29T13:19:14.242Z,59.35
2017-10-29T13:21:41.886Z,59.56
2017-10-29T13:24:09.489Z,58.97
2017-10-29T13:26:37.141Z,59.49
2017-10-29T13:29:04.840Z,58.46
2017-10-29T13:31:32.447Z,60.77
2017-10-29T13:34:00.193Z,61.26
2017-10-29T13:36:28.255Z,61.15
2017-10-29T13:38:55.864Z,62.00
2017-10-29T13:41:23.486Z,61.60
2017-10-29T13:43:51.092Z,60.14
2017-10-29T13:46:18.726Z,60.59
2017-10-29T13:48:46.358Z,59.07
2017-10-29T13:51:13.940Z,60.02
2017-10-29T13:53:41.564Z,59.94
2017-10-29T13:56:09.129Z,57.67
2017-10-29T13:58:36.789Z,59.94
2017-10-29T14:01:04.416Z,59.84
2017-10-29T14:03:32.088Z,58.09
2017-10-29T14:05:59.765Z,59.10
2017-10-29T14:08:27.382Z,59.61
2017-10-29T14:10:55.037Z,60.51
2017-10-29T14:13:22.667Z,61.06
2017-10-29T14:15:51.693Z,59.20
2017-10-29T14:18:21.063Z,58.26
2017-10-29T14:20:49.470Z,59.18
2017-10-29T14:23:17.139Z,59.54
2017-10-29T14:25:44.757Z,60.51
2017-10-29T14:28:12.464Z,60.88
2017-10-29T14:30:40.440Z,61.34
2017-10-29T14:33:08.190Z,58.03
2017-10-29T14:35:36.033Z,59.08
2017-10-29T14:38:03.750Z,59.94
2017-10-29T14:40:31.398Z,59.17
2017-10-29T14:42:59.150Z,57.67
2017-10-29T14:45:27.187Z,57.00
2017-10-29T14:47:54.827Z,57.21
2017-10-29T14:50:22.489Z,58.71
2017-10-29T14:52:50.666Z,58.70
2017-10-29T14:55:18.326Z,59.56
2017-10-29T14:57:45.968Z,59.50
2017-10-29T15:00:13.634Z,60.55
2017-10-29T15:02:41.744Z,60.21
2017-10-29T15:05:09.505Z,59.77
2017-10-29T15:07:37.306Z,59.24
2017-10-29T15:10:04.942Z,57.90
2017-10-29T15:12:32.634Z,58.92
2017-10-29T15:15:00.256Z,60.03
2017-10-29T15:17:27.952Z,60.06
2017-10-29T15:19:57.031Z,59.66
2017-10-29T15:22:25.109Z,59.60
2017-10-29T15:24:52.955Z,59.58
2017-10-29T15:27:21.181Z,59.34
2017-10-29T15:29:49.145Z,59.72
2017-10-29T15:32:16.832Z,60.30
2017-10-29T15:34:44.502Z,60.23
2017-10-29T15:37:12.305Z,61.31
2017-10-29T15:39:39.964Z,61.90
2017-10-29T15:42:07.725Z,60.88
2017-10-29T15:44:35.488Z,62.01
2017-10-29T15:47:04.109Z,62.43
2017-10-29T15:49:31.800Z,63.62
2017-10-29T15:52:01.857Z,62.43
2017-10-29T16:07:35.110Z,65.39
2017-10-29T16:10:03.322Z,66.18
2017-10-29T16:12:31.022Z,65.84
2017-10-29T16:15:00.788Z,65.26
2017-10-29T16:17:29.016Z,67.11
2017-10-29T16:19:56.813Z,66.90
2017-10-29T16:22:25.142Z,66.43
2017-10-29T16:24:52.835Z,66.47
2017-10-29T16:27:20.526Z,66.02
2017-10-29T16:29:48.482Z,66.48
2017-10-29T16:32:18.912Z,66.08
2017-10-29T16:34:46.634Z,66.57
2017-10-29T16:37:14.477Z,65.63
2017-10-29T16:39:42.294Z,67.28
2017-10-29T16:42:10.468Z,67.12
2017-10-29T16:44:38.334Z,67.61
2017-10-29T16:47:08.006Z,67.92
2017-10-29T16:49:36.194Z,68.60
2017-10-29T16:52:04.439Z,67.84
2017-10-29T16:54:32.610Z,69.08
2017-10-29T16:57:00.812Z,68.61
2017-10-29T16:59:28.664Z,68.91
2017-10-29T17:01:56.528Z,68.23
2017-10-29T17:04:25.564Z,68.36
2017-10-29T17:06:53.317Z,68.94
2017-10-29T17:09:21.260Z,67.49
2017-10-29T17:11:49.107Z,67.48
2017-10-29T17:14:18.238Z,68.22
2017-10-29T17:16:46.277Z,68.12
2017-10-29T17:19:14.041Z,68.29
2017-10-29T17:21:41.841Z,68.44
2017-10-29T17:24:09.564Z,68.19
2017-10-29T17:26:37.927Z,68.41
2017-10-29T17:29:05.663Z,69.06
2017-10-29T17:31:33.356Z,69.17
2017-10-29T17:34:01.436Z,69.34
2017-10-29T17:36:29.353Z,69.29
2017-10-29T17:38:57.106Z,69.21
2017-10-29T17:41:25.274Z,69.49
2017-10-29T17:43:53.152Z,69.53
2017-10-29T17:46:21.168Z,69.75
2017-10-29T17:48:49.378Z,69.01
2017-10-29T17:51:20.006Z,69.73
2017-10-29T17:53:47.874Z,69.79
2017-10-29T17:56:15.664Z,69.79
2017-10-29T17:58:43.559Z,69.48
2017-10-29T18:01:11.374Z,69.53
2017-10-29T18:03:39.069Z,68.67
2017-10-29T18:06:06.798Z,69.81
2017-10-29T18:08:34.608Z,69.51
2017-10-29T18:11:02.426Z,70.47
2017-10-29T18:13:30.218Z,70.09
2017-10-29T18:15:58.195Z,70.03
2017-10-29T18:18:26.160Z,70.87
2017-10-29T18:20:53.939Z,70.48
2017-10-29T18:23:21.903Z,70.85
2017-10-29T18:25:49.983Z,71.77
2017-10-29T18:28:17.777Z,71.50
2017-10-29T18:30:45.543Z,71.81
2017-10-29T18:33:13.352Z,71.77
2017-10-29T18:35:41.133Z,72.42
2017-10-29T18:38:08.982Z,72.48
2017-10-29T18:40:37.067Z,72.73
2017-10-29T18:43:04.920Z,72.62
2017-10-29T18:45:32.744Z,71.75
2017-10-29T18:48:00.755Z,71.78
2017-10-29T18:50:28.636Z,72.98
2017-10-29T18:52:56.865Z,72.87
2017-10-29T18:55:24.727Z,73.25
2017-10-29T18:57:52.633Z,72.74
2017-10-29T19:00:20.572Z,72.16
2017-10-29T19:02:48.486Z,72.91
2017-10-29T19:05:16.555Z,72.21
2017-10-29T19:07:44.524Z,72.58
2017-10-29T19:10:12.499Z,72.79
2017-10-29T19:12:40.352Z,73.37
2017-10-29T19:15:08.614Z,72.90
2017-10-29T19:17:37.439Z,72.81
2017-10-29T19:20:05.205Z,72.54
2017-10-29T19:22:36.229Z,73.28
2017-10-29T19:25:04.143Z,73.16
2017-10-29T19:27:31.950Z,73.02
2017-10-29T19:30:00.621Z,73.80
2017-10-29T19:32:29.843Z,73.86
2017-10-29T19:34:58.286Z,73.87
2017-10-29T19:37:27.050Z,74.08
2017-10-29T19:39:54.908Z,74.57
2017-10-29T19:42:24.019Z,74.43
2017-10-29T19:44:51.975Z,74.36
2017-10-29T19:47:19.878Z,74.29
2017-10-29T19:49:47.893Z,74.40
2017-10-29T19:52:15.878Z,75.07
2017-10-29T19:54:43.848Z,75.23
2017-10-29T19:57:11.760Z,75.49
2017-10-29T19:59:41.411Z,75.73
2017-10-29T20:02:09.310Z,75.63
2017-10-29T20:04:39.158Z,75.58
2017-10-29T20:07:07.977Z,76.19
2017-10-29T20:09:35.947Z,75.99
2017-10-29T20:12:04.415Z,76.63
2017-10-29T20:14:32.279Z,76.68
2017-10-29T20:17:00.232Z,76.91
2017-10-29T20:19:28.338Z,76.69
2017-10-29T20:21:56.301Z,76.45
2017-10-29T20:24:24.931Z,77.00
2017-10-29T20:26:52.890Z,77.40
2017-10-29T20:29:21.367Z,77.65
2017-10-29T20:31:50.436Z,77.72
2017-10-29T20:34:19.471Z,77.51
2017-10-29T20:36:50.352Z,77.61
2017-10-29T20:55:38.597Z,78.71
2017-10-29T20:58:06.592Z,78.73
2017-10-29T21:00:35.589Z,78.76
2017-10-29T21:03:04.397Z,78.40
2017-10-29T21:05:32.235Z,78.44
2017-10-29T21:08:00.076Z,78.92
2017-10-29T21:10:28.006Z,78.89
2017-10-29T21:12:55.840Z,78.43
2017-10-29T21:15:23.623Z,78.63
2017-10-29T21:17:51.586Z,78.97
2017-10-29T21:20:20.346Z,78.95
2017-10-29T21:22:48.224Z,79.06
2017-10-29T21:25:16.199Z,79.27
2017-10-29T21:27:43.903Z,78.74
2017-10-29T21:30:12.014Z,79.16
2017-10-29T21:32:39.809Z,79.01
2017-10-29T21:35:07.772Z,79.46
2017-10-29T21:37:35.544Z,79.50
2017-10-29T21:40:03.999Z,79.56
2017-10-29T21:42:31.965Z,79.37
2017-10-29T21:44:59.710Z,80.09
2017-10-29T21:47:27.586Z,80.15
2017-10-29T21:49:55.676Z,80.17
2017-10-29T21:52:23.410Z,80.22
2017-10-29T21:54:51.079Z,80.30
2017-10-29T21:57:18.803Z,80.52
2017-10-29T21:59:46.439Z,81.09
2017-10-29T22:02:14.135Z,80.64
2017-10-29T22:04:41.766Z,80.90
2017-10-29T22:07:09.379Z,80.62
2017-10-29T22:09:37.385Z,80.62
2017-10-29T22:12:05.050Z,80.66
2017-10-29T22:14:32.711Z,80.94
2017-10-29T22:17:00.320Z,80.94
2017-10-29T22:19:27.927Z,80.92
2017-10-29T22:21:55.728Z,81.11
2017-10-29T22:24:23.307Z,81.03
2017-10-29T22:26:50.882Z,81.29
2017-10-29T22:29:18.896Z,81.96
2017-10-29T22:31:46.544Z,81.80
2017-10-29T22:34:15.627Z,82.02
2017-10-29T22:36:43.208Z,82.17
2017-10-29T22:39:11.999Z,82.52
2017-10-29T22:41:39.584Z,82.51
2017-10-29T22:44:07.294Z,82.52
2017-10-29T22:46:34.919Z,82.72
2017-10-29T22:49:02.493Z,82.79
2017-10-29T22:51:30.845Z,83.09
2017-10-29T22:53:58.415Z,83.22
2017-10-29T22:56:26.002Z,83.70
2017-10-29T22:58:53.596Z,83.43
2017-10-29T23:01:21.188Z,83.57
2017-10-29T23:03:48.792Z,83.66
2017-10-29T23:06:28.295Z,83.70
2017-10-29T23:08:55.875Z,84.00
2017-10-29T23:11:23.460Z,84.06
2017-10-29T23:13:51.333Z,84.09
2017-10-29T23:16:18.915Z,84.10
2017-10-29T23:18:47.043Z,84.09
2017-10-29T23:21:14.641Z,84.45
2017-10-29T23:23:42.243Z,85.09
2017-10-29T23:26:11.774Z,84.88
2017-10-29T23:28:39.331Z,85.00
2017-10-29T23:31:06.906Z,85.12
2017-10-29T23:33:34.475Z,85.35
2017-10-29T23:36:02.460Z,85.43
2017-10-29T23:38:30.053Z,85.40
2017-10-29T23:40:57.629Z,85.36
2017-10-29T23:43:25.288Z,85.13
2017-10-29T23:45:52.871Z,85.29
2017-10-29T23:48:20.467Z,85.49
2017-10-29T23:50:48.041Z,85.58
2017-10-29T23:53:15.635Z,85.53
2017-10-29T23:55:43.211Z,85.49
2017-10-29T23:58:11.120Z,85.61
